sensor_id;sensor_type;location;lat;lon;timestamp;pressure;altitude;pressure_sealevel;temperature;humidity
77366;BME280;66430;50.182;11.704;2023-04-24T00:00:54;93579.57;;;13.59;41.77
77366;BME280;66430;50.182;11.704;2023-04-24T00:03:19;93580.94;;;13.32;42.47
77366;BME280;66430;50.182;11.704;2023-04-24T00:05:44;93585.95;;;13.65;42.07
77366;BME280;66430;50.182;11.704;2023-04-24T00:08:10;93585.27;;;13.18;42.90
77366;BME280;66430;50.182;11.704;2023-04-24T00:10:36;93584.28;;;13.66;42.46
77366;BME280;66430;50.182;11.704;2023-04-24T00:13:01;93580.96;;;13.70;42.44
77366;BME280;66430;50.182;11.704;2023-04-24T00:15:26;93575.93;;;13.55;42.40
77366;BME280;66430;50.182;11.704;2023-04-24T00:17:52;93573.42;;;13.64;42.90
77366;BME280;66430;50.182;11.704;2023-04-24T00:20:17;93573.76;;;13.74;42.68
77366;BME280;66430;50.182;11.704;2023-04-24T00:22:43;93573.49;;;13.46;43.19
77366;BME280;66430;50.182;11.704;2023-04-24T00:25:08;93576.52;;;13.78;42.34
77366;BME280;66430;50.182;11.704;2023-04-24T00:27:33;93573.97;;;13.56;42.42
77366;BME280;66430;50.182;11.704;2023-04-24T00:29:59;93573.14;;;13.33;42.88
77366;BME280;66430;50.182;11.704;2023-04-24T00:32:25;93577.34;;;13.38;42.87
77366;BME280;66430;50.182;11.704;2023-04-24T00:34:50;93578.10;;;14.04;42.42
77366;BME280;66430;50.182;11.704;2023-04-24T00:37:15;93580.45;;;13.57;42.98
77366;BME280;66430;50.182;11.704;2023-04-24T00:39:41;93578.27;;;13.70;42.80
77366;BME280;66430;50.182;11.704;2023-04-24T00:42:06;93581.17;;;13.71;42.42
77366;BME280;66430;50.182;11.704;2023-04-24T00:44:32;93576.56;;;13.55;42.31
77366;BME280;66430;50.182;11.704;2023-04-24T00:46:58;93572.69;;;13.61;42.60
77366;BME280;66430;50.182;11.704;2023-04-24T00:49:23;93564.68;;;13.55;42.75
77366;BME280;66430;50.182;11.704;2023-04-24T00:51:48;93562.73;;;13.15;42.72
77366;BME280;66430;50.182;11.704;2023-04-24T00:54:13;93569.64;;;13.59;42.87
77366;BME280;66430;50.182;11.704;2023-04-24T00:56:39;93567.35;;;13.57;42.82
77366;BME280;66430;50.182;11.704;2023-04-24T00:59:05;93567.38;;;13.24;42.86
77366;BME280;66430;50.182;11.704;2023-04-24T01:01:30;93567.52;;;13.40;42.48
77366;BME280;66430;50.182;11.704;2023-04-24T01:03:55;93564.66;;;13.72;42.29
77366;BME280;66430;50.182;11.704;2023-04-24T01:06:21;93566.93;;;12.93;42.66
77366;BME280;66430;50.182;11.704;2023-04-24T01:08:46;93569.99;;;13.34;42.39
77366;BME280;66430;50.182;11.704;2023-04-24T01:11:12;93571.23;;;13.61;42.37
77366;BME280;66430;50.182;11.704;2023-04-24T01:13:37;93576.79;;;13.40;42.93
77366;BME280;66430;50.182;11.704;2023-04-24T01:16:02;93579.17;;;13.16;42.63
77366;BME280;66430;50.182;11.704;2023-04-24T01:18:29;93583.28;;;13.22;42.73
77366;BME280;66430;50.182;11.704;2023-04-24T01:20:57;93584.16;;;13.15;42.44
77366;BME280;66430;50.182;11.704;2023-04-24T01:23:19;93585.92;;;13.48;42.17
77366;BME280;66430;50.182;11.704;2023-04-24T01:25:44;93585.39;;;13.23;42.38
77366;BME280;66430;50.182;11.704;2023-04-24T01:28:10;93584.05;;;13.36;41.86
77366;BME280;66430;50.182;11.704;2023-04-24T01:30:35;93580.99;;;13.10;42.25
77366;BME280;66430;50.182;11.704;2023-04-24T01:33:01;93573.90;;;13.17;41.78
77366;BME280;66430;50.182;11.704;2023-04-24T01:35:26;93573.53;;;12.98;41.94
77366;BME280;66430;50.182;11.704;2023-04-24T01:37:51;93578.16;;;13.25;41.56
77366;BME280;66430;50.182;11.704;2023-04-24T01:40:17;93575.00;;;13.18;41.72
77366;BME280;66430;50.182;11.704;2023-04-24T01:42:42;93568.51;;;12.66;41.94
77366;BME280;66430;50.182;11.704;2023-04-24T01:45:11;93567.48;;;12.89;41.64
77366;BME280;66430;50.182;11.704;2023-04-24T01:47:33;93563.11;;;13.06;41.69
77366;BME280;66430;50.182;11.704;2023-04-24T01:49:59;93558.90;;;13.20;42.19
77366;BME280;66430;50.182;11.704;2023-04-24T01:52:24;93556.13;;;13.07;41.80
77366;BME280;66430;50.182;11.704;2023-04-24T01:54:50;93555.47;;;12.77;41.80
77366;BME280;66430;50.182;11.704;2023-04-24T01:57:16;93552.05;;;13.11;41.66
77366;BME280;66430;50.182;11.704;2023-04-24T01:59:40;93548.11;;;12.95;41.82
77366;BME280;66430;50.182;11.704;2023-04-24T02:02:06;93549.20;;;13.06;41.58
77366;BME280;66430;50.182;11.704;2023-04-24T02:04:32;93547.26;;;12.64;42.51
77366;BME280;66430;50.182;11.704;2023-04-24T02:06:57;93542.57;;;12.87;42.56
77366;BME280;66430;50.182;11.704;2023-04-24T02:09:22;93542.72;;;12.69;42.75
77366;BME280;66430;50.182;11.704;2023-04-24T02:11:48;93542.31;;;13.04;42.30
77366;BME280;66430;50.182;11.704;2023-04-24T02:14:13;93542.67;;;12.70;42.50
77366;BME280;66430;50.182;11.704;2023-04-24T02:16:39;93545.66;;;12.92;42.63
77366;BME280;66430;50.182;11.704;2023-04-24T02:19:04;93541.42;;;12.78;42.50
77366;BME280;66430;50.182;11.704;2023-04-24T02:21:30;93545.48;;;12.95;42.28
77366;BME280;66430;50.182;11.704;2023-04-24T02:23:55;93544.03;;;12.94;43.08
77366;BME280;66430;50.182;11.704;2023-04-24T02:26:20;93543.32;;;12.89;43.31
77366;BME280;66430;50.182;11.704;2023-04-24T02:28:46;93542.39;;;12.65;43.16
77366;BME280;66430;50.182;11.704;2023-04-24T02:31:11;93542.41;;;12.67;43.18
77366;BME280;66430;50.182;11.704;2023-04-24T02:33:37;93544.29;;;12.80;42.83
77366;BME280;66430;50.182;11.704;2023-04-24T02:36:02;93545.88;;;12.76;43.00
77366;BME280;66430;50.182;11.704;2023-04-24T02:38:28;93544.77;;;12.86;42.56
77366;BME280;66430;50.182;11.704;2023-04-24T02:40:53;93546.86;;;12.59;42.90
77366;BME280;66430;50.182;11.704;2023-04-24T02:43:19;93542.99;;;12.82;42.42
77366;BME280;66430;50.182;11.704;2023-04-24T02:45:44;93541.73;;;12.71;43.06
77366;BME280;66430;50.182;11.704;2023-04-24T02:48:10;93540.21;;;12.77;42.56
77366;BME280;66430;50.182;11.704;2023-04-24T02:50:35;93534.05;;;13.00;42.54
77366;BME280;66430;50.182;11.704;2023-04-24T02:53:00;93533.66;;;12.65;43.05
77366;BME280;66430;50.182;11.704;2023-04-24T02:55:26;93530.70;;;12.53;42.85
77366;BME280;66430;50.182;11.704;2023-04-24T02:57:51;93522.89;;;12.95;42.40
77366;BME280;66430;50.182;11.704;2023-04-24T03:00:17;93518.85;;;12.46;42.57
77366;BME280;66430;50.182;11.704;2023-04-24T03:02:42;93515.43;;;12.60;42.68
77366;BME280;66430;50.182;11.704;2023-04-24T03:05:08;93516.78;;;12.60;42.36
77366;BME280;66430;50.182;11.704;2023-04-24T03:07:33;93515.83;;;12.61;42.53
77366;BME280;66430;50.182;11.704;2023-04-24T03:09:59;93516.91;;;12.89;42.35
77366;BME280;66430;50.182;11.704;2023-04-24T03:12:24;93515.81;;;12.63;42.46
77366;BME280;66430;50.182;11.704;2023-04-24T03:14:50;93510.75;;;12.57;42.77
77366;BME280;66430;50.182;11.704;2023-04-24T03:17:15;93511.43;;;12.69;42.30
77366;BME280;66430;50.182;11.704;2023-04-24T03:19:40;93507.38;;;12.78;42.49
77366;BME280;66430;50.182;11.704;2023-04-24T03:22:06;93508.20;;;12.66;43.07
77366;BME280;66430;50.182;11.704;2023-04-24T03:24:32;93502.83;;;12.63;43.09
77366;BME280;66430;50.182;11.704;2023-04-24T03:26:57;93499.57;;;12.41;43.33
77366;BME280;66430;50.182;11.704;2023-04-24T03:29:22;93501.95;;;12.61;42.91
77366;BME280;66430;50.182;11.704;2023-04-24T03:31:48;93502.95;;;12.59;43.05
77366;BME280;66430;50.182;11.704;2023-04-24T03:34:13;93504.25;;;12.38;43.43
77366;BME280;66430;50.182;11.704;2023-04-24T03:36:39;93504.34;;;12.48;43.32
77366;BME280;66430;50.182;11.704;2023-04-24T03:39:04;93502.05;;;12.30;43.94
77366;BME280;66430;50.182;11.704;2023-04-24T03:41:30;93503.22;;;12.49;43.69
77366;BME280;66430;50.182;11.704;2023-04-24T03:43:55;93504.60;;;12.37;43.69
77366;BME280;66430;50.182;11.704;2023-04-24T03:46:21;93510.71;;;13.00;43.59
77366;BME280;66430;50.182;11.704;2023-04-24T03:48:46;93512.17;;;12.42;43.74
77366;BME280;66430;50.182;11.704;2023-04-24T03:51:12;93506.59;;;12.66;43.70
77366;BME280;66430;50.182;11.704;2023-04-24T03:53:37;93505.45;;;12.45;43.80
77366;BME280;66430;50.182;11.704;2023-04-24T03:56:02;93505.46;;;12.76;43.62
77366;BME280;66430;50.182;11.704;2023-04-24T03:58:28;93502.10;;;12.46;43.72
77366;BME280;66430;50.182;11.704;2023-04-24T04:00:53;93505.12;;;12.82;43.46
77366;BME280;66430;50.182;11.704;2023-04-24T04:03:19;93498.77;;;12.40;43.86
77366;BME280;66430;50.182;11.704;2023-04-24T04:05:44;93505.59;;;12.68;43.35
77366;BME280;66430;50.182;11.704;2023-04-24T04:08:10;93505.66;;;12.61;43.38
77366;BME280;66430;50.182;11.704;2023-04-24T04:10:35;93505.78;;;12.88;43.31
77366;BME280;66430;50.182;11.704;2023-04-24T04:13:01;93500.48;;;12.63;43.78
77366;BME280;66430;50.182;11.704;2023-04-24T04:15:26;93501.93;;;12.41;43.69
77366;BME280;66430;50.182;11.704;2023-04-24T04:17:52;93505.53;;;12.59;43.79
77366;BME280;66430;50.182;11.704;2023-04-24T04:20:17;93507.87;;;12.26;43.89
77366;BME280;66430;50.182;11.704;2023-04-24T04:22:42;93507.80;;;12.15;43.47
77366;BME280;66430;50.182;11.704;2023-04-24T04:25:08;93509.14;;;12.45;43.60
77366;BME280;66430;50.182;11.704;2023-04-24T04:27:34;93511.79;;;12.83;43.18
77366;BME280;66430;50.182;11.704;2023-04-24T04:29:58;93511.14;;;12.58;43.29
77366;BME280;66430;50.182;11.704;2023-04-24T04:32:24;93508.30;;;12.70;43.23
77366;BME280;66430;50.182;11.704;2023-04-24T04:34:49;93509.22;;;12.56;43.30
77366;BME280;66430;50.182;11.704;2023-04-24T04:37:15;93512.99;;;12.66;43.04
77366;BME280;66430;50.182;11.704;2023-04-24T04:39:40;93506.21;;;12.44;43.79
77366;BME280;66430;50.182;11.704;2023-04-24T04:42:06;93506.51;;;12.55;43.10
77366;BME280;66430;50.182;11.704;2023-04-24T04:44:31;93510.44;;;12.65;42.79
77366;BME280;66430;50.182;11.704;2023-04-24T04:46:57;93513.25;;;12.69;42.92
77366;BME280;66430;50.182;11.704;2023-04-24T04:49:22;93509.20;;;12.63;43.41
77366;BME280;66430;50.182;11.704;2023-04-24T04:51:48;93510.79;;;12.64;42.90
77366;BME280;66430;50.182;11.704;2023-04-24T04:54:14;93509.54;;;12.51;43.19
77366;BME280;66430;50.182;11.704;2023-04-24T04:56:39;93510.51;;;12.58;43.15
77366;BME280;66430;50.182;11.704;2023-04-24T04:59:05;93513.75;;;12.24;44.05
77366;BME280;66430;50.182;11.704;2023-04-24T05:01:30;93518.68;;;12.44;43.34
77366;BME280;66430;50.182;11.704;2023-04-24T05:03:56;93521.43;;;12.60;43.10
77366;BME280;66430;50.182;11.704;2023-04-24T05:06:21;93516.54;;;12.48;43.17
77366;BME280;66430;50.182;11.704;2023-04-24T05:08:46;93516.94;;;12.50;43.38
77366;BME280;66430;50.182;11.704;2023-04-24T05:11:12;93522.53;;;12.68;42.94
77366;BME280;66430;50.182;11.704;2023-04-24T05:13:37;93530.21;;;12.37;43.34
77366;BME280;66430;50.182;11.704;2023-04-24T05:16:03;93530.55;;;12.86;42.92
77366;BME280;66430;50.182;11.704;2023-04-24T05:18:28;93535.01;;;12.83;42.77
77366;BME280;66430;50.182;11.704;2023-04-24T05:20:54;93538.35;;;12.84;42.54
77366;BME280;66430;50.182;11.704;2023-04-24T05:23:19;93538.58;;;12.88;42.83
77366;BME280;66430;50.182;11.704;2023-04-24T05:25:46;93542.11;;;13.34;42.61
77366;BME280;66430;50.182;11.704;2023-04-24T05:28:10;93538.00;;;12.35;43.37
77366;BME280;66430;50.182;11.704;2023-04-24T05:30:35;93540.46;;;12.75;42.92
77366;BME280;66430;50.182;11.704;2023-04-24T05:33:01;93538.39;;;12.83;42.95
77366;BME280;66430;50.182;11.704;2023-04-24T05:35:26;93544.80;;;12.54;42.48
77366;BME280;66430;50.182;11.704;2023-04-24T05:37:52;93547.54;;;13.06;42.37
77366;BME280;66430;50.182;11.704;2023-04-24T05:40:17;93548.00;;;12.94;42.70
77366;BME280;66430;50.182;11.704;2023-04-24T05:42:43;93548.24;;;12.80;42.78
77366;BME280;66430;50.182;11.704;2023-04-24T05:45:09;93550.05;;;12.74;42.96
77366;BME280;66430;50.182;11.704;2023-04-24T05:47:34;93548.96;;;12.80;42.98
77366;BME280;66430;50.182;11.704;2023-04-24T05:50:00;93547.73;;;12.52;43.40
77366;BME280;66430;50.182;11.704;2023-04-24T05:52:25;93552.19;;;12.83;42.82
77366;BME280;66430;50.182;11.704;2023-04-24T05:54:50;93557.22;;;12.98;42.56
77366;BME280;66430;50.182;11.704;2023-04-24T05:57:15;93551.49;;;13.37;42.65
77366;BME280;66430;50.182;11.704;2023-04-24T05:59:41;93549.09;;;12.57;43.46
77366;BME280;66430;50.182;11.704;2023-04-24T06:02:06;93550.68;;;12.99;42.88
77366;BME280;66430;50.182;11.704;2023-04-24T06:04:32;93549.07;;;12.97;43.21
77366;BME280;66430;50.182;11.704;2023-04-24T06:06:59;93545.53;;;12.80;43.59
77366;BME280;66430;50.182;11.704;2023-04-24T06:09:23;93552.54;;;12.95;42.99
77366;BME280;66430;50.182;11.704;2023-04-24T06:11:49;93555.44;;;13.05;42.82
77366;BME280;66430;50.182;11.704;2023-04-24T06:14:14;93555.21;;;13.09;42.82
77366;BME280;66430;50.182;11.704;2023-04-24T06:16:41;93550.92;;;12.79;43.47
77366;BME280;66430;50.182;11.704;2023-04-24T06:19:05;93546.82;;;12.61;43.70
77366;BME280;66430;50.182;11.704;2023-04-24T06:21:30;93542.67;;;13.07;43.48
77366;BME280;66430;50.182;11.704;2023-04-24T06:23:55;93545.10;;;13.43;43.08
77366;BME280;66430;50.182;11.704;2023-04-24T06:26:21;93543.49;;;13.08;43.01
77366;BME280;66430;50.182;11.704;2023-04-24T06:28:46;93546.57;;;13.28;43.34
77366;BME280;66430;50.182;11.704;2023-04-24T06:31:11;93548.09;;;13.07;42.88
77366;BME280;66430;50.182;11.704;2023-04-24T06:33:37;93547.83;;;13.05;42.58
77366;BME280;66430;50.182;11.704;2023-04-24T06:36:03;93538.78;;;13.54;42.76
77366;BME280;66430;50.182;11.704;2023-04-24T06:38:33;93542.72;;;14.15;42.86
77366;BME280;66430;50.182;11.704;2023-04-24T06:40:54;93539.25;;;13.51;43.28
77366;BME280;66430;50.182;11.704;2023-04-24T06:43:19;93541.97;;;13.62;42.38
77366;BME280;66430;50.182;11.704;2023-04-24T06:45:44;93543.61;;;13.91;42.61
77366;BME280;66430;50.182;11.704;2023-04-24T06:48:10;93539.33;;;13.61;42.53
77366;BME280;66430;50.182;11.704;2023-04-24T06:50:35;93533.30;;;13.63;43.34
77366;BME280;66430;50.182;11.704;2023-04-24T06:53:00;93532.80;;;13.80;42.68
77366;BME280;66430;50.182;11.704;2023-04-24T06:55:26;93529.09;;;14.13;42.61
77366;BME280;66430;50.182;11.704;2023-04-24T06:57:51;93531.50;;;13.78;42.69
77366;BME280;66430;50.182;11.704;2023-04-24T07:00:17;93530.19;;;14.03;42.51
77366;BME280;66430;50.182;11.704;2023-04-24T07:02:42;93531.52;;;14.12;42.53
77366;BME280;66430;50.182;11.704;2023-04-24T07:05:08;93531.45;;;13.91;42.34
77366;BME280;66430;50.182;11.704;2023-04-24T07:07:33;93526.40;;;13.81;41.96
77366;BME280;66430;50.182;11.704;2023-04-24T07:09:58;93531.76;;;13.78;41.48
77366;BME280;66430;50.182;11.704;2023-04-24T07:12:24;93534.10;;;13.74;41.17
77366;BME280;66430;50.182;11.704;2023-04-24T07:14:50;93541.51;;;13.87;41.42
77366;BME280;66430;50.182;11.704;2023-04-24T07:17:15;93540.18;;;13.58;41.78
77366;BME280;66430;50.182;11.704;2023-04-24T07:19:40;93542.66;;;13.67;41.44
77366;BME280;66430;50.182;11.704;2023-04-24T07:22:06;93545.60;;;13.29;41.75
77366;BME280;66430;50.182;11.704;2023-04-24T07:24:31;93543.40;;;13.54;41.50
77366;BME280;66430;50.182;11.704;2023-04-24T07:26:56;93541.76;;;13.39;41.39
77366;BME280;66430;50.182;11.704;2023-04-24T07:29:22;93543.96;;;13.38;42.17
77366;BME280;66430;50.182;11.704;2023-04-24T07:31:48;93543.49;;;13.57;42.07
77366;BME280;66430;50.182;11.704;2023-04-24T07:34:13;93542.03;;;13.50;41.67
77366;BME280;66430;50.182;11.704;2023-04-24T07:36:38;93547.44;;;13.84;41.73
77366;BME280;66430;50.182;11.704;2023-04-24T07:39:04;93549.70;;;13.64;41.84
77366;BME280;66430;50.182;11.704;2023-04-24T07:41:29;93546.67;;;13.59;42.59
77366;BME280;66430;50.182;11.704;2023-04-24T07:43:55;93548.49;;;14.03;42.40
77366;BME280;66430;50.182;11.704;2023-04-24T07:46:20;93551.61;;;13.50;42.49
77366;BME280;66430;50.182;11.704;2023-04-24T07:48:45;93547.46;;;13.59;41.72
77366;BME280;66430;50.182;11.704;2023-04-24T07:51:11;93551.54;;;13.68;41.71
77366;BME280;66430;50.182;11.704;2023-04-24T07:53:36;93559.69;;;13.81;41.97
77366;BME280;66430;50.182;11.704;2023-04-24T07:56:02;93560.19;;;14.10;41.90
77366;BME280;66430;50.182;11.704;2023-04-24T07:58:27;93563.35;;;14.11;42.18
77366;BME280;66430;50.182;11.704;2023-04-24T08:00:53;93567.66;;;14.27;41.70
77366;BME280;66430;50.182;11.704;2023-04-24T08:03:18;93569.07;;;14.35;41.55
77366;BME280;66430;50.182;11.704;2023-04-24T08:05:43;93571.44;;;14.31;41.64
77366;BME280;66430;50.182;11.704;2023-04-24T08:08:09;93576.23;;;14.01;41.32
77366;BME280;66430;50.182;11.704;2023-04-24T08:10:34;93574.23;;;14.10;40.49
77366;BME280;66430;50.182;11.704;2023-04-24T08:13:00;93573.51;;;14.43;40.58
77366;BME280;66430;50.182;11.704;2023-04-24T08:15:28;93580.37;;;14.36;40.63
77366;BME280;66430;50.182;11.704;2023-04-24T08:17:50;93584.53;;;14.22;40.86
77366;BME280;66430;50.182;11.704;2023-04-24T08:20:16;93589.44;;;14.39;40.19
77366;BME280;66430;50.182;11.704;2023-04-24T08:22:42;93591.36;;;14.23;39.99
77366;BME280;66430;50.182;11.704;2023-04-24T08:25:07;93595.57;;;13.98;39.56
77366;BME280;66430;50.182;11.704;2023-04-24T08:27:32;93601.60;;;13.90;38.43
77366;BME280;66430;50.182;11.704;2023-04-24T08:29:58;93603.68;;;13.98;39.18
77366;BME280;66430;50.182;11.704;2023-04-24T08:32:23;93605.96;;;14.05;39.02
77366;BME280;66430;50.182;11.704;2023-04-24T08:34:49;93606.67;;;14.29;39.25
77366;BME280;66430;50.182;11.704;2023-04-24T08:37:14;93609.20;;;14.41;39.50
77366;BME280;66430;50.182;11.704;2023-04-24T08:39:39;93606.52;;;14.56;38.57
77366;BME280;66430;50.182;11.704;2023-04-24T08:42:05;93604.93;;;14.51;40.16
77366;BME280;66430;50.182;11.704;2023-04-24T08:44:31;93606.74;;;14.81;38.83
77366;BME280;66430;50.182;11.704;2023-04-24T08:46:56;93604.68;;;14.55;37.97
77366;BME280;66430;50.182;11.704;2023-04-24T08:49:21;93612.68;;;14.75;38.33
77366;BME280;66430;50.182;11.704;2023-04-24T08:51:47;93602.73;;;14.96;37.13
77366;BME280;66430;50.182;11.704;2023-04-24T08:54:14;93605.48;;;14.99;37.30
77366;BME280;66430;50.182;11.704;2023-04-24T08:56:39;93597.33;;;15.06;36.24
77366;BME280;66430;50.182;11.704;2023-04-24T08:59:03;93610.91;;;15.02;35.60
77366;BME280;66430;50.182;11.704;2023-04-24T09:01:29;93612.26;;;15.26;35.88
77366;BME280;66430;50.182;11.704;2023-04-24T09:03:55;93617.16;;;15.00;35.06
77366;BME280;66430;50.182;11.704;2023-04-24T09:06:19;93612.94;;;14.84;34.11
77366;BME280;66430;50.182;11.704;2023-04-24T09:08:45;93612.04;;;15.05;33.52
77366;BME280;66430;50.182;11.704;2023-04-24T09:11:10;93622.25;;;14.35;34.42
77366;BME280;66430;50.182;11.704;2023-04-24T09:13:36;93621.48;;;14.64;33.85
77366;BME280;66430;50.182;11.704;2023-04-24T09:16:01;93625.57;;;14.52;35.75
77366;BME280;66430;50.182;11.704;2023-04-24T09:18:26;93626.60;;;15.00;36.26
77366;BME280;66430;50.182;11.704;2023-04-24T09:20:59;93616.78;;;15.20;33.50
77366;BME280;66430;50.182;11.704;2023-04-24T09:23:18;93617.86;;;15.26;32.84
77366;BME280;66430;50.182;11.704;2023-04-24T09:25:42;93625.35;;;15.34;32.37
77366;BME280;66430;50.182;11.704;2023-04-24T09:28:08;93633.63;;;15.00;33.32
77366;BME280;66430;50.182;11.704;2023-04-24T09:30:33;93629.16;;;14.72;33.18
77366;BME280;66430;50.182;11.704;2023-04-24T09:33:10;93629.91;;;15.16;32.95
77366;BME280;66430;50.182;11.704;2023-04-24T09:35:24;93628.95;;;14.71;33.40
77366;BME280;66430;50.182;11.704;2023-04-24T09:37:49;93634.74;;;14.85;33.51
77366;BME280;66430;50.182;11.704;2023-04-24T09:40:17;93635.16;;;14.69;33.79
77366;BME280;66430;50.182;11.704;2023-04-24T09:42:43;93630.75;;;14.67;32.97
77366;BME280;66430;50.182;11.704;2023-04-24T09:45:09;93630.90;;;14.76;33.35
77366;BME280;66430;50.182;11.704;2023-04-24T09:47:36;93634.82;;;15.31;33.22
77366;BME280;66430;50.182;11.704;2023-04-24T09:49:58;93639.91;;;14.98;34.18
77366;BME280;66430;50.182;11.704;2023-04-24T09:52:22;93641.03;;;15.00;33.63
77366;BME280;66430;50.182;11.704;2023-04-24T09:54:53;93638.45;;;14.65;32.42
77366;BME280;66430;50.182;11.704;2023-04-24T09:57:14;93644.67;;;14.74;33.27
77366;BME280;66430;50.182;11.704;2023-04-24T09:59:43;93649.89;;;14.75;32.98
77366;BME280;66430;50.182;11.704;2023-04-24T10:04:29;93654.13;;;14.49;33.67
77366;BME280;66430;50.182;11.704;2023-04-24T10:06:56;93655.40;;;14.60;33.22
77366;BME280;66430;50.182;11.704;2023-04-24T10:09:21;93650.58;;;14.88;33.43
77366;BME280;66430;50.182;11.704;2023-04-24T10:11:47;93650.27;;;14.74;34.04
77366;BME280;66430;50.182;11.704;2023-04-24T10:14:14;93644.91;;;15.13;34.24
77366;BME280;66430;50.182;11.704;2023-04-24T10:16:37;93643.65;;;15.58;34.27
77366;BME280;66430;50.182;11.704;2023-04-24T10:19:03;93646.06;;;15.38;34.20
77366;BME280;66430;50.182;11.704;2023-04-24T10:21:28;93649.71;;;15.43;32.76
77366;BME280;66430;50.182;11.704;2023-04-24T10:23:54;93660.91;;;15.42;32.33
77366;BME280;66430;50.182;11.704;2023-04-24T10:26:18;93663.88;;;14.96;31.40
77366;BME280;66430;50.182;11.704;2023-04-24T10:28:47;93671.23;;;14.71;32.55
77366;BME280;66430;50.182;11.704;2023-04-24T10:31:10;93666.35;;;15.03;32.93
77366;BME280;66430;50.182;11.704;2023-04-24T10:33:34;93670.15;;;15.29;32.69
77366;BME280;66430;50.182;11.704;2023-04-24T10:36:00;93663.78;;;15.22;31.97
77366;BME280;66430;50.182;11.704;2023-04-24T10:38:26;93666.40;;;15.48;31.90
77366;BME280;66430;50.182;11.704;2023-04-24T10:40:50;93666.40;;;15.47;31.96
77366;BME280;66430;50.182;11.704;2023-04-24T10:43:17;93672.04;;;15.13;31.39
77366;BME280;66430;50.182;11.704;2023-04-24T10:48:08;93674.09;;;15.15;31.64
77366;BME280;66430;50.182;11.704;2023-04-24T10:50:43;93681.31;;;14.77;31.26
77366;BME280;66430;50.182;11.704;2023-04-24T10:53:06;93685.91;;;15.02;30.59
77366;BME280;66430;50.182;11.704;2023-04-24T10:55:40;93692.52;;;14.33;30.64
77366;BME280;66430;50.182;11.704;2023-04-24T10:58:02;93696.54;;;14.82;31.24
77366;BME280;66430;50.182;11.704;2023-04-24T11:00:16;93690.25;;;14.32;31.68
77366;BME280;66430;50.182;11.704;2023-04-24T11:02:40;93689.92;;;14.49;31.56
77366;BME280;66430;50.182;11.704;2023-04-24T11:05:06;93690.70;;;14.33;31.78
77366;BME280;66430;50.182;11.704;2023-04-24T11:07:32;93691.55;;;14.53;30.51
77366;BME280;66430;50.182;11.704;2023-04-24T11:10:03;93697.63;;;14.38;31.63
77366;BME280;66430;50.182;11.704;2023-04-24T11:12:21;93698.80;;;14.66;31.90
77366;BME280;66430;50.182;11.704;2023-04-24T11:15:00;93698.14;;;14.27;32.98
77366;BME280;66430;50.182;11.704;2023-04-24T11:19:39;93700.45;;;14.70;32.35
77366;BME280;66430;50.182;11.704;2023-04-24T11:22:04;93697.81;;;14.82;32.21
77366;BME280;66430;50.182;11.704;2023-04-24T11:24:30;93699.72;;;14.75;32.02
77366;BME280;66430;50.182;11.704;2023-04-24T11:26:55;93700.54;;;14.76;32.51
77366;BME280;66430;50.182;11.704;2023-04-24T11:29:20;93702.48;;;14.61;32.61
77366;BME280;66430;50.182;11.704;2023-04-24T11:31:45;93699.45;;;14.70;32.41
77366;BME280;66430;50.182;11.704;2023-04-24T11:34:11;93706.90;;;14.66;31.39
77366;BME280;66430;50.182;11.704;2023-04-24T11:36:35;93707.08;;;13.95;32.01
77366;BME280;66430;50.182;11.704;2023-04-24T11:39:01;93714.92;;;14.53;32.13
77366;BME280;66430;50.182;11.704;2023-04-24T11:41:26;93711.38;;;14.56;34.61
77366;BME280;66430;50.182;11.704;2023-04-24T11:43:52;93709.65;;;14.93;33.63
77366;BME280;66430;50.182;11.704;2023-04-24T11:46:17;93713.22;;;14.55;33.83
77366;BME280;66430;50.182;11.704;2023-04-24T11:48:45;93712.03;;;14.93;33.43
77366;BME280;66430;50.182;11.704;2023-04-24T11:51:07;93704.10;;;15.59;33.01
77366;BME280;66430;50.182;11.704;2023-04-24T11:53:33;93700.50;;;15.56;32.14
77366;BME280;66430;50.182;11.704;2023-04-24T11:56:03;93701.22;;;15.37;31.07
77366;BME280;66430;50.182;11.704;2023-04-24T11:58:23;93696.95;;;15.70;30.34
77366;BME280;66430;50.182;11.704;2023-04-24T12:00:56;93694.04;;;15.53;29.93
77366;BME280;66430;50.182;11.704;2023-04-24T12:03:14;93691.20;;;15.24;29.64
77366;BME280;66430;50.182;11.704;2023-04-24T12:05:40;93687.61;;;15.55;30.27
77366;BME280;66430;50.182;11.704;2023-04-24T12:08:05;93696.64;;;15.64;31.22
77366;BME280;66430;50.182;11.704;2023-04-24T12:10:32;93694.18;;;15.58;31.12
77366;BME280;66430;50.182;11.704;2023-04-24T12:12:58;93694.53;;;15.52;29.90
77366;BME280;66430;50.182;11.704;2023-04-24T12:15:22;93697.08;;;15.89;30.32
77366;BME280;66430;50.182;11.704;2023-04-24T12:17:47;93701.41;;;15.67;31.26
77366;BME280;66430;50.182;11.704;2023-04-24T12:20:13;93701.61;;;15.43;30.25
77366;BME280;66430;50.182;11.704;2023-04-24T12:22:45;93706.80;;;15.71;30.58
77366;BME280;66430;50.182;11.704;2023-04-24T12:25:04;93711.88;;;15.16;29.24
77366;BME280;66430;50.182;11.704;2023-04-24T12:27:31;93710.18;;;15.57;29.14
77366;BME280;66430;50.182;11.704;2023-04-24T12:29:56;93708.82;;;15.38;30.00
77366;BME280;66430;50.182;11.704;2023-04-24T12:32:20;93715.63;;;14.91;29.61
77366;BME280;66430;50.182;11.704;2023-04-24T12:34:45;93713.69;;;15.13;31.15
77366;BME280;66430;50.182;11.704;2023-04-24T12:37:10;93710.13;;;15.63;30.98
77366;BME280;66430;50.182;11.704;2023-04-24T12:39:36;93710.68;;;15.15;30.01
77366;BME280;66430;50.182;11.704;2023-04-24T12:42:01;93716.00;;;15.03;30.20
77366;BME280;66430;50.182;11.704;2023-04-24T12:44:30;93714.40;;;14.95;32.01
77366;BME280;66430;50.182;11.704;2023-04-24T12:46:52;93700.63;;;15.15;30.78